createdAt,value
2018-07-24T00:00:20.319Z,24.20
2018-07-24T00:04:22.512Z,24.00
2018-07-24T00:08:24.760Z,24.00
2018-07-24T00:12:26.967Z,24.00
2018-07-24T00:16:29.139Z,23.80
2018-07-24T00:20:31.370Z,23.80
2018-07-24T00:24:33.660Z,23.80
2018-07-24T00:28:35.819Z,23.70
2018-07-24T00:32:38.013Z,23.60
2018-07-24T00:36:40.275Z,23.40
2018-07-24T00:40:42.504Z,23.40
2018-07-24T00:44:44.867Z,23.50
2018-07-24T00:48:47.036Z,23.40
2018-07-24T00:52:49.299Z,23.40
2018-07-24T00:56:51.747Z,23.30
2018-07-24T01:00:53.924Z,23.20
2018-07-24T01:04:56.132Z,23.20
2018-07-24T01:08:58.293Z,23.20
2018-07-24T01:13:00.647Z,23.10
2018-07-24T01:17:02.849Z,23.00
2018-07-24T01:21:05.053Z,22.90
2018-07-24T01:25:07.239Z,22.90
2018-07-24T01:29:09.410Z,22.90
2018-07-24T01:33:11.589Z,22.50
2018-07-24T01:37:13.807Z,22.50
2018-07-24T01:41:16.010Z,22.60
2018-07-24T01:45:18.187Z,22.60
2018-07-24T01:49:20.403Z,22.70
2018-07-24T01:53:22.546Z,22.50
2018-07-24T01:57:24.714Z,22.40
2018-07-24T02:01:26.983Z,22.40
2018-07-24T02:05:29.346Z,22.40
2018-07-24T02:09:31.540Z,22.20
2018-07-24T02:13:33.800Z,22.20
2018-07-24T02:17:36.421Z,22.20
2018-07-24T02:21:38.650Z,22.10
2018-07-24T02:25:40.916Z,22.10
2018-07-24T02:29:43.210Z,22.00
2018-07-24T02:33:45.648Z,21.90
2018-07-24T02:37:48.011Z,22.00
2018-07-24T02:41:50.248Z,21.90
2018-07-24T02:45:52.387Z,21.60
2018-07-24T02:49:54.523Z,21.80
2018-07-24T02:53:56.689Z,22.00
2018-07-24T02:57:58.911Z,21.90
2018-07-24T03:02:01.089Z,21.80
2018-07-24T03:06:03.281Z,21.90
2018-07-24T03:10:05.533Z,21.80
2018-07-24T03:14:08.059Z,21.70
2018-07-24T03:18:10.294Z,21.70
2018-07-24T03:22:12.711Z,21.70
2018-07-24T03:26:14.844Z,21.60
2018-07-24T03:30:17.016Z,21.50
2018-07-24T03:34:19.178Z,21.50
2018-07-24T03:38:21.371Z,21.40
2018-07-24T03:42:23.547Z,21.40
2018-07-24T03:46:26.696Z,21.40
2018-07-24T03:50:28.868Z,21.40
2018-07-24T03:54:31.037Z,21.60
2018-07-24T03:58:33.239Z,21.60
2018-07-24T04:02:35.460Z,21.60
2018-07-24T04:06:37.626Z,21.60
2018-07-24T04:10:39.831Z,21.50
2018-07-24T04:14:42.109Z,21.70
2018-07-24T04:18:48.108Z,21.70
2018-07-24T04:22:50.372Z,21.70
2018-07-24T04:26:52.530Z,21.70
2018-07-24T04:30:54.804Z,21.80
2018-07-24T04:34:57.144Z,22.00
2018-07-24T04:38:59.364Z,22.00
2018-07-24T04:43:01.607Z,22.10
2018-07-24T04:47:03.871Z,22.20
2018-07-24T04:51:06.071Z,22.40
2018-07-24T04:55:08.254Z,22.60
2018-07-24T04:59:10.416Z,22.60
2018-07-24T05:03:12.621Z,22.90
2018-07-24T05:07:14.812Z,22.90
2018-07-24T05:11:16.990Z,23.20
2018-07-24T05:15:19.493Z,23.40
2018-07-24T05:19:21.762Z,23.70
2018-07-24T05:23:24.064Z,24.10
2018-07-24T05:27:26.267Z,24.30
2018-07-24T05:31:28.687Z,24.50
2018-07-24T05:35:31.011Z,24.80
2018-07-24T05:39:33.291Z,25.10
2018-07-24T05:43:35.455Z,25.20
2018-07-24T05:47:37.904Z,25.20
2018-07-24T05:51:40.108Z,25.50
2018-07-24T05:55:42.328Z,25.60
2018-07-24T05:59:44.602Z,26.10
2018-07-24T06:03:46.844Z,26.90
2018-07-24T06:07:49.080Z,29.10
2018-07-24T06:11:51.306Z,31.80
2018-07-24T06:15:53.572Z,34.20
2018-07-24T06:19:56.049Z,36.10
2018-07-24T06:25:27.756Z,37.50
2018-07-24T06:29:30.014Z,31.70
2018-07-24T06:33:32.216Z,28.00
2018-07-24T06:37:34.369Z,26.90
2018-07-24T06:41:36.543Z,26.10
2018-07-24T06:45:38.714Z,25.50
2018-07-24T06:49:41.203Z,25.70
2018-07-24T06:53:43.359Z,26.50
2018-07-24T06:57:45.594Z,27.10
2018-07-24T07:01:47.880Z,27.10
2018-07-24T07:05:50.220Z,27.70
2018-07-24T07:09:52.388Z,27.60
2018-07-24T07:13:54.575Z,27.90
2018-07-24T07:17:56.759Z,28.50
2018-07-24T07:21:59.310Z,28.60
2018-07-24T07:26:01.487Z,28.70
2018-07-24T07:30:04.223Z,29.60
2018-07-24T07:34:06.393Z,30.10
2018-07-24T07:38:08.614Z,29.80
2018-07-24T07:42:10.857Z,29.60
2018-07-24T07:46:13.120Z,29.70
2018-07-24T07:50:15.298Z,31.40
2018-07-24T07:54:17.625Z,32.40
2018-07-24T07:58:19.826Z,30.60
2018-07-24T08:02:22.039Z,32.90
2018-07-24T08:06:24.205Z,30.40
2018-07-24T08:10:26.407Z,30.80
2018-07-24T08:14:28.663Z,29.50
2018-07-24T08:18:30.859Z,30.50
2018-07-24T08:22:33.104Z,31.40
2018-07-24T08:26:35.316Z,33.00
2018-07-24T08:30:37.507Z,30.60
2018-07-24T08:34:39.798Z,31.20
2018-07-24T08:38:42.000Z,32.20
2018-07-24T08:42:44.230Z,30.80
2018-07-24T08:46:46.479Z,30.80
2018-07-24T08:50:48.692Z,31.00
2018-07-24T08:54:51.246Z,31.30
2018-07-24T08:58:53.435Z,32.10
2018-07-24T09:02:55.705Z,31.70
2018-07-24T09:06:58.296Z,31.50
2018-07-24T09:11:00.487Z,32.50
2018-07-24T09:15:03.000Z,33.40
2018-07-24T09:19:05.216Z,31.80
2018-07-24T09:23:07.755Z,32.20
2018-07-24T09:27:10.001Z,32.60
2018-07-24T09:31:12.196Z,33.50
2018-07-24T09:35:14.528Z,32.10
2018-07-24T09:39:16.762Z,32.90
2018-07-24T09:43:18.972Z,34.50
2018-07-24T09:47:21.235Z,33.30
2018-07-24T09:51:23.467Z,32.50
2018-07-24T09:55:25.708Z,30.90
2018-07-24T09:59:27.957Z,32.50
2018-07-24T10:03:30.116Z,34.80
2018-07-24T10:07:32.516Z,35.10
2018-07-24T10:11:34.797Z,33.80
2018-07-24T10:15:36.983Z,33.20
2018-07-24T10:19:39.179Z,34.40
2018-07-24T10:23:41.370Z,35.50
2018-07-24T10:27:43.569Z,36.60
2018-07-24T10:31:45.760Z,35.50
2018-07-24T10:35:48.024Z,33.30
2018-07-24T10:39:50.260Z,31.80
2018-07-24T10:43:52.475Z,33.90
2018-07-24T10:47:54.827Z,34.00
2018-07-24T10:51:57.021Z,35.10
2018-07-24T10:55:59.294Z,33.40
2018-07-24T11:00:01.552Z,33.50
2018-07-24T11:04:03.823Z,34.10
2018-07-24T11:08:06.402Z,32.50
2018-07-24T11:12:08.746Z,34.70
2018-07-24T11:16:10.997Z,35.00
2018-07-24T11:20:13.308Z,32.90
2018-07-24T11:24:15.683Z,33.90
2018-07-24T11:28:18.107Z,36.00
2018-07-24T11:32:20.531Z,35.80
2018-07-24T11:36:24.113Z,34.50
2018-07-24T11:40:27.901Z,32.60
2018-07-24T11:44:30.696Z,34.80
2018-07-24T11:48:34.846Z,36.50
2018-07-24T11:52:38.888Z,34.00
2018-07-24T11:56:41.598Z,35.70
2018-07-24T12:00:46.175Z,35.60
2018-07-24T12:04:48.555Z,36.40
2018-07-24T12:08:50.771Z,37.60
2018-07-24T12:12:53.039Z,38.00
2018-07-24T12:16:55.261Z,37.90
2018-07-24T12:20:57.496Z,39.10
2018-07-24T12:24:59.985Z,41.20
2018-07-24T12:29:02.244Z,42.40
2018-07-24T12:33:04.555Z,43.00
2018-07-24T12:37:06.815Z,41.60
2018-07-24T12:41:09.070Z,42.70
2018-07-24T12:45:11.352Z,43.60
2018-07-24T12:49:13.572Z,44.70
2018-07-24T12:53:15.929Z,42.30
2018-07-24T12:57:18.226Z,41.40
2018-07-24T13:01:20.554Z,41.10
2018-07-24T13:05:22.877Z,42.80
2018-07-24T13:09:25.087Z,40.80
2018-07-24T13:13:27.312Z,41.10
2018-07-24T13:17:29.648Z,42.10
2018-07-24T13:21:31.911Z,42.00
2018-07-24T13:25:34.855Z,41.80
2018-07-24T13:29:37.147Z,42.20
2018-07-24T13:33:39.629Z,43.20
2018-07-24T13:37:41.949Z,44.50
2018-07-24T13:41:44.187Z,44.70
2018-07-24T13:45:46.549Z,43.70
2018-07-24T13:49:48.849Z,44.80
2018-07-24T13:53:51.124Z,44.90
2018-07-24T13:57:53.394Z,44.60
2018-07-24T14:01:56.143Z,44.70
2018-07-24T14:05:58.376Z,43.60
2018-07-24T14:10:00.670Z,42.30
2018-07-24T14:14:02.994Z,42.60
2018-07-24T14:18:05.243Z,42.60
2018-07-24T14:22:07.494Z,40.70
2018-07-24T14:26:09.731Z,41.00
2018-07-24T14:30:12.294Z,41.30
2018-07-24T14:34:14.485Z,43.20
2018-07-24T14:38:16.862Z,42.70
2018-07-24T14:42:19.640Z,41.90
2018-07-24T14:46:21.880Z,42.10
2018-07-24T14:50:24.113Z,42.50
2018-07-24T14:54:26.375Z,43.40
2018-07-24T14:58:28.668Z,39.00
2018-07-24T15:02:30.856Z,39.20
2018-07-24T15:06:33.184Z,39.00
2018-07-24T15:10:35.344Z,39.90
2018-07-24T15:14:37.607Z,40.20
2018-07-24T15:18:39.815Z,40.60
2018-07-24T15:22:42.107Z,40.90
2018-07-24T15:26:44.329Z,41.00
2018-07-24T15:30:46.534Z,41.20
2018-07-24T15:34:48.855Z,41.10
2018-07-24T15:38:50.982Z,41.30
2018-07-24T15:42:53.296Z,41.30
2018-07-24T15:46:55.979Z,41.10
2018-07-24T15:50:58.373Z,39.80
2018-07-24T15:55:00.581Z,37.70
2018-07-24T15:59:03.387Z,37.70
2018-07-24T16:03:05.591Z,35.90
2018-07-24T16:07:07.866Z,36.70
2018-07-24T16:11:10.100Z,36.00
2018-07-24T16:15:12.359Z,36.50
2018-07-24T16:19:14.624Z,37.70
2018-07-24T16:23:16.827Z,37.20
2018-07-24T16:27:19.096Z,36.80
2018-07-24T16:31:21.404Z,36.30
2018-07-24T16:35:23.694Z,35.20
2018-07-24T16:39:25.989Z,35.70
2018-07-24T16:43:28.239Z,36.20
2018-07-24T16:47:30.530Z,35.50
2018-07-24T16:51:32.841Z,36.20
2018-07-24T16:55:35.121Z,35.90
2018-07-24T16:59:37.337Z,34.90
2018-07-24T17:03:39.544Z,36.60
2018-07-24T17:07:41.831Z,37.20
2018-07-24T17:11:44.100Z,37.00
2018-07-24T17:15:46.348Z,35.20
2018-07-24T17:19:48.667Z,35.80
2018-07-24T17:23:50.876Z,36.30
2018-07-24T17:27:53.101Z,35.40
2018-07-24T17:31:55.418Z,35.70
2018-07-24T17:35:57.604Z,35.60
2018-07-24T17:39:59.734Z,35.40
2018-07-24T17:44:01.912Z,35.00
2018-07-24T17:48:04.706Z,35.70
2018-07-24T17:52:06.859Z,34.90
2018-07-24T17:56:09.044Z,34.60
2018-07-24T18:00:11.293Z,35.60
2018-07-24T18:04:13.489Z,36.20
2018-07-24T18:08:15.750Z,36.10
2018-07-24T18:12:17.908Z,36.00
2018-07-24T18:16:20.075Z,36.10
2018-07-24T18:20:22.327Z,36.10
2018-07-24T18:24:24.515Z,36.30
2018-07-24T18:28:26.702Z,36.20
2018-07-24T18:32:28.888Z,36.20
2018-07-24T18:36:31.035Z,36.10
2018-07-24T18:40:33.421Z,36.00
2018-07-24T18:44:35.643Z,35.90
2018-07-24T18:48:37.843Z,35.00
2018-07-24T18:52:40.032Z,34.70
2018-07-24T18:56:42.162Z,34.60
2018-07-24T19:00:44.620Z,34.20
2018-07-24T19:04:46.774Z,34.10
2018-07-24T19:08:48.971Z,34.30
2018-07-24T19:12:51.531Z,34.50
2018-07-24T19:16:53.710Z,34.10
2018-07-24T19:20:55.911Z,33.90
2018-07-24T19:24:58.064Z,33.70
2018-07-24T19:29:00.285Z,33.40
2018-07-24T19:33:02.535Z,33.10
2018-07-24T19:37:04.723Z,32.90
2018-07-24T19:41:06.936Z,32.40
2018-07-24T19:45:09.112Z,32.40
2018-07-24T19:49:11.299Z,32.20
2018-07-24T19:53:13.527Z,32.00
2018-07-24T19:57:15.686Z,31.80
2018-07-24T20:01:17.863Z,31.60
2018-07-24T20:05:20.110Z,31.40
2018-07-24T20:09:22.315Z,31.00
2018-07-24T20:13:24.510Z,30.90
2018-07-24T20:17:26.696Z,30.60
2018-07-24T20:21:28.909Z,30.50
2018-07-24T20:25:31.113Z,30.30
2018-07-24T20:29:33.514Z,30.20
2018-07-24T20:33:35.727Z,30.00
2018-07-24T20:37:37.915Z,29.90
2018-07-24T20:41:40.405Z,29.80
2018-07-24T20:45:42.603Z,29.50
2018-07-24T20:49:44.754Z,29.60
2018-07-24T20:53:46.909Z,29.50
2018-07-24T20:57:49.114Z,29.30
2018-07-24T21:01:51.380Z,29.20
2018-07-24T21:05:53.572Z,29.20
2018-07-24T21:09:56.031Z,29.00
2018-07-24T21:13:58.331Z,28.90
2018-07-24T21:18:00.555Z,28.90
2018-07-24T21:22:02.818Z,28.80
2018-07-24T21:26:05.129Z,28.70
2018-07-24T21:30:08.245Z,28.60
2018-07-24T21:34:10.567Z,28.50
2018-07-24T21:38:12.925Z,28.30
2018-07-24T21:42:15.224Z,28.20
2018-07-24T21:46:17.555Z,28.10
2018-07-24T21:50:19.808Z,27.90
2018-07-24T21:54:22.046Z,27.90
2018-07-24T21:58:24.351Z,27.80
2018-07-24T22:02:26.602Z,27.80
2018-07-24T22:06:28.851Z,27.80
2018-07-24T22:10:31.099Z,27.70
2018-07-24T22:14:33.346Z,27.50
2018-07-24T22:18:35.596Z,27.40
2018-07-24T22:22:37.915Z,27.40
2018-07-24T22:26:40.164Z,27.40
2018-07-24T22:30:42.388Z,27.40
2018-07-24T22:34:44.654Z,27.30
2018-07-24T22:38:46.955Z,27.10
2018-07-24T22:42:49.178Z,27.00
2018-07-24T22:46:51.463Z,27.00
2018-07-24T22:50:53.787Z,26.90
2018-07-24T22:54:56.038Z,26.90
2018-07-24T22:58:58.305Z,26.90
2018-07-24T23:03:00.515Z,26.80
2018-07-24T23:07:02.810Z,26.70
2018-07-24T23:11:05.006Z,26.70
2018-07-24T23:15:07.444Z,26.60
2018-07-24T23:19:09.657Z,26.60
2018-07-24T23:23:11.918Z,26.50
2018-07-24T23:27:14.112Z,26.40
2018-07-24T23:31:16.377Z,26.30
2018-07-24T23:35:18.601Z,26.20
2018-07-24T23:39:20.856Z,26.20
2018-07-24T23:43:23.255Z,26.10
2018-07-24T23:47:25.530Z,26.00
2018-07-24T23:51:27.819Z,26.10
2018-07-24T23:55:30.147Z,26.20
2018-07-24T23:59:32.387Z,26.20
